TimeCDT,TemperatureF,Dew PointF,Humidity,Sea Level PressureIn,VisibilityMPH,Wind Direction,Wind SpeedMPH,Gust SpeedMPH,PrecipitationIn,Events,Conditions,WindDirDegrees,DateUTC
12:14 AM,33.8,26.6,75,30.12,10.0,Calm,Calm,-,N/A,,Clear,0,2013-04-27 05:14:00
12:34 AM,33.8,28.4,81,30.11,10.0,North,4.6,-,N/A,,Clear,350,2013-04-27 05:34:00
12:53 AM,35.6,28.4,75,30.11,10.0,Calm,Calm,-,N/A,,Clear,0,2013-04-27 05:53:00
1:14 AM,35.6,28.4,75,30.11,10.0,Calm,Calm,-,N/A,,Clear,0,2013-04-27 06:14:00
1:33 AM,35.6,28.4,75,30.12,10.0,WSW,3.5,-,N/A,,Clear,240,2013-04-27 06:33:00
1:53 AM,33.8,28.4,81,30.12,10.0,WSW,3.5,-,N/A,,Clear,250,2013-04-27 06:53:00
2:14 AM,33.8,28.4,81,30.12,10.0,Calm,Calm,-,N/A,,Clear,0,2013-04-27 07:14:00
2:34 AM,32.0,26.6,80,30.11,10.0,Calm,Calm,-,N/A,,Clear,0,2013-04-27 07:34:00
2:53 AM,30.2,26.6,86,30.11,10.0,Calm,Calm,-,N/A,,Clear,0,2013-04-27 07:53:00
3:13 AM,30.2,26.6,86,30.11,10.0,NNW,3.5,-,N/A,,Clear,340,2013-04-27 08:13:00
3:34 AM,30.2,26.6,86,30.10,10.0,NNW,3.5,-,N/A,,Clear,330,2013-04-27 08:34:00
3:53 AM,30.2,24.8,80,30.10,10.0,WNW,3.5,-,N/A,,Clear,290,2013-04-27 08:53:00
4:13 AM,28.4,24.8,86,30.10,10.0,Calm,Calm,-,N/A,,Clear,0,2013-04-27 09:13:00
4:34 AM,28.4,24.8,86,30.09,10.0,Calm,Calm,-,N/A,,Clear,0,2013-04-27 09:34:00
4:53 AM,28.4,24.8,86,30.09,10.0,Calm,Calm,-,N/A,,Clear,0,2013-04-27 09:53:00
5:13 AM,28.4,24.8,86,30.09,10.0,Calm,Calm,-,N/A,,Clear,0,2013-04-27 10:13:00
5:34 AM,30.2,26.6,86,30.09,10.0,Calm,Calm,-,N/A,,Clear,0,2013-04-27 10:34:00
5:54 AM,30.2,24.8,80,30.09,10.0,Calm,Calm,-,N/A,,Clear,0,2013-04-27 10:54:00
6:13 AM,33.8,26.6,75,30.09,10.0,Calm,Calm,-,N/A,,Clear,0,2013-04-27 11:13:00
6:34 AM,33.8,26.6,75,30.10,10.0,Calm,Calm,-,N/A,,Clear,0,2013-04-27 11:34:00
6:53 AM,35.6,26.6,70,30.10,10.0,Calm,Calm,-,N/A,,Clear,0,2013-04-27 11:53:00
7:13 AM,39.2,28.4,65,30.10,10.0,Calm,Calm,-,N/A,,Clear,0,2013-04-27 12:13:00
7:34 AM,37.4,28.4,70,30.10,10.0,Calm,Calm,-,N/A,,Clear,0,2013-04-27 12:34:00
7:54 AM,42.8,28.4,57,30.10,10.0,Calm,Calm,-,N/A,,Clear,0,2013-04-27 12:54:00
8:14 AM,48.2,28.4,46,30.10,10.0,Calm,Calm,-,N/A,,Clear,0,2013-04-27 13:14:00
8:33 AM,51.8,26.6,38,30.10,10.0,SW,4.6,-,N/A,,Clear,220,2013-04-27 13:33:00
8:54 AM,53.6,26.6,35,30.10,10.0,SSW,3.5,-,N/A,,Clear,200,2013-04-27 13:54:00
9:13 AM,55.4,26.6,33,30.09,10.0,South,4.6,-,N/A,,Clear,170,2013-04-27 14:13:00
9:34 AM,57.2,26.6,31,30.09,10.0,South,5.8,-,N/A,,Clear,180,2013-04-27 14:34:00
9:53 AM,57.2,26.6,31,30.09,10.0,South,6.9,-,N/A,,Clear,190,2013-04-27 14:53:00
10:14 AM,57.2,26.6,31,30.09,10.0,South,6.9,-,N/A,,Clear,170,2013-04-27 15:14:00
10:33 AM,57.2,26.6,31,30.09,10.0,SSW,8.1,-,N/A,,Clear,200,2013-04-27 15:33:00
10:53 AM,57.2,26.6,31,30.09,10.0,SSW,9.2,-,N/A,,Clear,200,2013-04-27 15:53:00
11:14 AM,57.2,26.6,31,30.09,10.0,South,6.9,-,N/A,,Clear,190,2013-04-27 16:14:00
11:33 AM,59.0,26.6,29,30.08,10.0,South,9.2,-,N/A,,Clear,180,2013-04-27 16:33:00
11:53 AM,59.0,24.8,27,30.08,10.0,SSW,8.1,16.1,N/A,,Clear,200,2013-04-27 16:53:00
12:13 PM,60.8,24.8,25,30.07,10.0,South,6.9,-,N/A,,Clear,190,2013-04-27 17:13:00
12:34 PM,60.8,24.8,25,30.06,10.0,SSW,11.5,-,N/A,,Clear,200,2013-04-27 17:34:00
12:54 PM,60.8,24.8,25,30.06,10.0,South,8.1,-,N/A,,Clear,180,2013-04-27 17:54:00
1:13 PM,57.2,24.8,29,30.06,10.0,SSW,9.2,18.4,N/A,,Clear,200,2013-04-27 18:13:00
1:33 PM,57.2,26.6,31,30.05,10.0,South,5.8,-,N/A,,Clear,180,2013-04-27 18:33:00
1:54 PM,59.0,26.6,29,30.04,10.0,SSW,6.9,-,N/A,,Clear,200,2013-04-27 18:54:00
2:13 PM,59.0,24.8,27,30.03,10.0,South,11.5,-,N/A,,Clear,190,2013-04-27 19:13:00
2:34 PM,60.8,24.8,25,30.02,10.0,SSW,10.4,16.1,N/A,,Clear,200,2013-04-27 19:34:00
2:53 PM,60.8,26.6,27,30.02,10.0,South,9.2,-,N/A,,Clear,180,2013-04-27 19:53:00
3:14 PM,60.8,26.6,27,30.01,10.0,SSW,9.2,-,N/A,,Clear,200,2013-04-27 20:14:00
3:34 PM,59.0,26.6,29,30.00,10.0,South,10.4,-,N/A,,Clear,190,2013-04-27 20:34:00
3:53 PM,59.0,26.6,29,30.00,10.0,South,8.1,-,N/A,,Clear,180,2013-04-27 20:53:00
4:14 PM,60.8,26.6,27,29.99,10.0,South,9.2,-,N/A,,Clear,180,2013-04-27 21:14:00
4:33 PM,57.2,26.6,31,29.99,10.0,South,10.4,-,N/A,,Clear,190,2013-04-27 21:33:00
4:54 PM,57.2,26.6,31,29.99,10.0,SSW,3.5,-,N/A,,Clear,200,2013-04-27 21:54:00
5:13 PM,57.2,24.8,29,29.98,10.0,South,6.9,-,N/A,,Clear,190,2013-04-27 22:13:00
5:34 PM,57.2,24.8,29,29.98,10.0,South,6.9,-,N/A,,Clear,180,2013-04-27 22:34:00
5:54 PM,57.2,24.8,29,29.97,10.0,South,5.8,-,N/A,,Clear,170,2013-04-27 22:54:00
6:13 PM,57.2,24.8,29,29.96,10.0,South,6.9,-,N/A,,Clear,190,2013-04-27 23:13:00
6:34 PM,55.4,24.8,31,29.95,10.0,SSE,5.8,-,N/A,,Clear,160,2013-04-27 23:34:00
6:53 PM,55.4,24.8,31,29.95,10.0,South,5.8,-,N/A,,Clear,170,2013-04-27 23:53:00
7:13 PM,53.6,26.6,35,29.94,10.0,SSE,4.6,-,N/A,,Clear,160,2013-04-28 00:13:00
7:34 PM,51.8,28.4,41,29.94,10.0,Calm,Calm,-,N/A,,Clear,0,2013-04-28 00:34:00
7:53 PM,48.2,30.2,50,29.94,10.0,Calm,Calm,-,N/A,,Clear,0,2013-04-28 00:53:00
8:14 PM,46.4,28.4,50,29.94,10.0,Calm,Calm,-,N/A,,Clear,0,2013-04-28 01:14:00
8:33 PM,46.4,28.4,50,29.93,10.0,SE,3.5,-,N/A,,Clear,130,2013-04-28 01:33:00
8:54 PM,44.6,28.4,53,29.93,10.0,Calm,Calm,-,N/A,,Clear,0,2013-04-28 01:54:00
9:14 PM,44.6,28.4,53,29.93,10.0,Calm,Calm,-,N/A,,Clear,0,2013-04-28 02:14:00
9:33 PM,44.6,28.4,53,29.92,10.0,SE,3.5,-,N/A,,Clear,130,2013-04-28 02:33:00
9:53 PM,44.6,28.4,53,29.92,10.0,ESE,3.5,-,N/A,,Clear,120,2013-04-28 02:53:00
10:14 PM,44.6,30.2,57,29.92,10.0,ESE,3.5,-,N/A,,Clear,110,2013-04-28 03:14:00
10:33 PM,44.6,30.2,57,29.91,10.0,SE,3.5,-,N/A,,Clear,130,2013-04-28 03:33:00
10:53 PM,44.6,30.2,57,29.91,10.0,Calm,Calm,-,N/A,,Clear,0,2013-04-28 03:53:00
11:14 PM,42.8,30.2,61,29.91,10.0,Calm,Calm,-,N/A,,Scattered Clouds,0,2013-04-28 04:14:00
11:34 PM,42.8,30.2,61,29.90,10.0,SSE,3.5,-,N/A,,Mostly Cloudy,160,2013-04-28 04:34:00
11:53 PM,44.6,30.2,57,29.89,10.0,SE,3.5,-,N/A,,Scattered Clouds,140,2013-04-28 04:53:00